Excellent Pescadores — HORK — position and weather

sailwx.info

Track history (hours):
 
Tides and Currents Weather Stations Pressure Air Temp Water Temp Dewpoint Dewpoint Depression Visibility Wind Speed Wind Dir Waves Ship Positions

Excellent Pescadores

Last reported at 2016-Feb-06 22:04 UTC. Time now 2016-Feb-13 23:44 UTC.
Position N 37°48' E 122°24'.

Length 148 m; draft 7 m.

Type: Cargo ship. MMSI: 356291000.

Date/timePositionNaut miles runAvg speedWind from/ knotsBaromVisibWave heightAir tempDewpointWater temp
2016-Feb-06 22:04N 37°48' E 122°24'713.0
2016-Feb-06 21:30N 37°44' E 122°31'1413.3
2016-Feb-06 20:28N 37°35' E 122°44'3712.2
2016-Feb-06 17:25N 36°59' E 122°54'343 9.5
2016-Feb-05 05:24N 31°21' E 121°39'8 9.3
2016-Feb-05 04:32N 31°23' E 121°30'1 1.2
2016-Feb-05 03:19N 31°22' E 121°30'0 0.0
2016-Feb-05 02:25N 31°22' E 121°30'0 0.0
2016-Feb-05 01:19N 31°22' E 121°30'0 0.0
2016-Feb-04 22:31N 31°22' E 121°30'0 0.0
2016-Feb-04 21:24N 31°22' E 121°30'0 0.0
2016-Feb-04 20:12N 31°22' E 121°30'0 0.0
2016-Feb-04 19:12N 31°22' E 121°30'0 0.0
2016-Feb-04 18:06N 31°22' E 121°30'0 0.0
2016-Feb-04 17:30N 31°22' E 121°30'0 0.0
2016-Feb-04 15:18N 31°22' E 121°30'0 0.1
2016-Feb-04 14:18N 31°22' E 121°30'0 0.0
2016-Feb-04 12:06N 31°22' E 121°30'0 0.0
2016-Feb-04 09:30N 31°22' E 121°30'0 0.0
2016-Feb-04 07:24N 31°22' E 121°30'0 0.1
2016-Feb-04 06:24N 31°22' E 121°30'0 0.0
2016-Feb-04 05:30N 31°22' E 121°30'0 0.1
2016-Feb-04 04:29N 31°22' E 121°30'4 3.8
2016-Feb-04 03:33N 31°24' E 121°33'  
2016-Jan-28 23:04N 22°48' E 119°55'611.8
2016-Jan-28 22:33N 22°42' E 119°55'1312.0
2016-Jan-28 21:29N 22°29' E 119°55'  
Track history (hours):
 
Tides and Currents Weather Stations Pressure Air Temp Water Temp Dewpoint Dewpoint Depression Visibility Wind Speed Wind Dir Waves Ship Positions

Excellent Pescadores

Last reported at 2016-Feb-06 22:04 UTC. Time now 2016-Feb-13 23:44 UTC.
Position N 37°48' E 122°24'.

Length 148 m; draft 7 m.

Type: Cargo ship. MMSI: 356291000.

Date/timePositionNaut miles runAvg speedWind from/ knotsBaromVisibWave heightAir tempDewpointWater temp
2016-Feb-06 22:04N 37°48' E 122°24'713.0
2016-Feb-06 21:30N 37°44' E 122°31'1413.3
2016-Feb-06 20:28N 37°35' E 122°44'3712.2
2016-Feb-06 17:25N 36°59' E 122°54'343 9.5
2016-Feb-05 05:24N 31°21' E 121°39'8 9.3
2016-Feb-05 04:32N 31°23' E 121°30'1 1.2
2016-Feb-05 03:19N 31°22' E 121°30'0 0.0
2016-Feb-05 02:25N 31°22' E 121°30'0 0.0
2016-Feb-05 01:19N 31°22' E 121°30'0 0.0
2016-Feb-04 22:31N 31°22' E 121°30'0 0.0
2016-Feb-04 21:24N 31°22' E 121°30'0 0.0
2016-Feb-04 20:12N 31°22' E 121°30'0 0.0
2016-Feb-04 19:12N 31°22' E 121°30'0 0.0
2016-Feb-04 18:06N 31°22' E 121°30'0 0.0
2016-Feb-04 17:30N 31°22' E 121°30'0 0.0
2016-Feb-04 15:18N 31°22' E 121°30'0 0.1
2016-Feb-04 14:18N 31°22' E 121°30'0 0.0
2016-Feb-04 12:06N 31°22' E 121°30'0 0.0
2016-Feb-04 09:30N 31°22' E 121°30'0 0.0
2016-Feb-04 07:24N 31°22' E 121°30'0 0.1
2016-Feb-04 06:24N 31°22' E 121°30'0 0.0
2016-Feb-04 05:30N 31°22' E 121°30'0 0.1
2016-Feb-04 04:29N 31°22' E 121°30'4 3.8
2016-Feb-04 03:33N 31°24' E 121°33'  
2016-Jan-28 23:04N 22°48' E 119°55'611.8
2016-Jan-28 22:33N 22°42' E 119°55'1312.0
2016-Jan-28 21:29N 22°29' E 119°55'  

Dump ship's entire track history